Time;durP1;ratioP1;P1;durP2;ratioP2;P2;SDS_P1;SDS_P2;PMS_P1;PMS_P2;Temp;Humidity;BMP_temperature;BMP_pressure;BME280_temperature;BME280_humidity;BME280_pressure;Samples;Min_cycle;Max_cycle;Signal;HPM_P1;HPM_P2
2023/03/08 00:01:43;;;;;;;0.10;0.10;;;2.90;99.90;;;;;;5029429;28;20033;-60
2023/03/08 00:04:09;;;;;;;0.32;0.32;;;2.90;99.90;;;;;;5025803;28;20053;-60
2023/03/08 00:06:35;;;;;;;0.10;0.10;;;3.00;99.90;;;;;;5027396;28;20045;-60
2023/03/08 00:09:01;;;;;;;0.10;0.10;;;3.00;99.90;;;;;;5028270;28;20039;-60
2023/03/08 00:11:28;;;;;;;0.10;0.10;;;3.00;99.90;;;;;;5016804;28;20049;-60
2023/03/08 00:13:54;;;;;;;0.10;0.10;;;3.00;99.90;;;;;;5026601;28;20056;-61
2023/03/08 00:16:20;;;;;;;0.10;0.10;;;3.00;99.90;;;;;;5026375;28;20489;-60
2023/03/08 00:18:46;;;;;;;0.10;0.10;;;3.10;99.90;;;;;;5027422;28;20116;-61
2023/03/08 00:21:17;;;;;;;0.10;0.10;;;3.10;99.90;;;;;;5023011;28;20041;-60
2023/03/08 00:23:43;;;;;;;0.10;0.10;;;3.10;99.90;;;;;;5024476;28;20095;-60
2023/03/08 00:26:10;;;;;;;0.15;0.15;;;3.10;99.90;;;;;;5028063;28;20046;-61
2023/03/08 00:28:36;;;;;;;0.10;0.10;;;3.10;99.90;;;;;;5024757;28;20136;-60
2023/03/08 00:31:10;;;;;;;0.10;0.10;;;3.20;99.90;;;;;;5027620;28;20132;-60
2023/03/08 00:33:36;;;;;;;0.10;0.10;;;3.10;99.90;;;;;;5028286;28;20053;-60
2023/03/08 00:36:08;;;;;;;0.10;0.10;;;3.10;99.90;;;;;;5027485;28;20063;-61
2023/03/08 00:38:35;;;;;;;0.10;0.10;;;3.00;99.90;;;;;;5025824;28;20045;-60
2023/03/08 00:41:01;;;;;;;0.10;0.10;;;2.90;99.90;;;;;;5028090;28;20049;-60
2023/03/08 00:43:27;;;;;;;0.10;0.10;;;3.00;99.90;;;;;;5026988;28;20760;-60
2023/03/08 00:45:53;;;;;;;0.10;0.10;;;3.00;99.90;;;;;;5025885;28;20132;-60
2023/03/08 00:48:19;;;;;;;0.10;0.10;;;3.00;99.90;;;;;;5027606;28;20104;-60
2023/03/08 00:50:44;;;;;;;0.10;0.10;;;2.90;99.90;;;;;;5022511;28;20052;-60
2023/03/08 00:53:10;;;;;;;0.20;0.20;;;2.90;99.90;;;;;;5027446;28;20069;-60
2023/03/08 00:55:36;;;;;;;0.10;0.10;;;2.90;99.90;;;;;;5026384;28;20543;-60
2023/03/08 00:58:03;;;;;;;0.50;0.50;;;2.90;99.90;;;;;;5027605;28;20073;-60
2023/03/08 01:00:29;;;;;;;0.17;0.17;;;2.90;99.90;;;;;;5028088;28;20164;-60
2023/03/08 01:02:56;;;;;;;0.10;0.10;;;2.90;99.90;;;;;;5026824;28;20045;-60
2023/03/08 01:05:22;;;;;;;0.10;0.10;;;2.90;99.90;;;;;;5025325;28;20046;-60
2023/03/08 01:07:47;;;;;;;0.20;0.20;;;3.00;99.90;;;;;;5026975;28;20068;-60
2023/03/08 01:10:13;;;;;;;0.10;0.10;;;3.00;99.90;;;;;;5025947;28;20057;-60
2023/03/08 01:12:39;;;;;;;0.10;0.10;;;2.90;99.90;;;;;;5025411;28;20095;-60
2023/03/08 01:15:06;;;;;;;0.10;0.10;;;3.00;99.90;;;;;;5028068;28;20561;-60
2023/03/08 01:17:31;;;;;;;0.10;0.10;;;2.80;99.90;;;;;;5026635;28;20041;-60
2023/03/08 01:19:57;;;;;;;0.10;0.10;;;2.70;99.90;;;;;;5024775;28;20459;-60
2023/03/08 01:22:22;;;;;;;0.10;0.10;;;2.70;99.90;;;;;;5027746;28;20049;-61
2023/03/08 01:24:49;;;;;;;0.10;0.10;;;2.70;99.90;;;;;;5028204;28;20037;-60
2023/03/08 01:27:15;;;;;;;0.10;0.10;;;2.60;99.90;;;;;;5024455;28;20041;-61
2023/03/08 01:29:42;;;;;;;0.10;0.10;;;2.60;99.90;;;;;;5027785;28;20049;-60
2023/03/08 01:32:08;;;;;;;0.10;0.10;;;2.60;99.90;;;;;;5026402;28;20038;-60
2023/03/08 01:34:38;;;;;;;0.10;0.10;;;2.60;99.90;;;;;;5025461;28;20045;-60
2023/03/08 01:37:04;;;;;;;0.20;0.20;;;2.60;99.90;;;;;;5026337;28;20513;-60
2023/03/08 01:39:30;;;;;;;0.10;0.10;;;2.50;99.90;;;;;;5027131;28;20542;-61
2023/03/08 01:41:55;;;;;;;0.30;0.30;;;2.50;99.90;;;;;;5026211;28;20041;-60
2023/03/08 01:44:21;;;;;;;0.10;0.10;;;2.50;99.90;;;;;;5023614;28;20488;-60
2023/03/08 01:46:48;;;;;;;0.10;0.10;;;2.50;99.90;;;;;;5027226;28;20168;-60
2023/03/08 01:49:19;;;;;;;0.17;0.17;;;2.40;99.90;;;;;;5026934;28;20045;-60
2023/03/08 01:51:48;;;;;;;0.10;0.10;;;2.50;99.90;;;;;;5026652;28;20130;-60
2023/03/08 01:54:22;;;;;;;0.10;0.10;;;2.40;99.90;;;;;;5025677;28;20087;-60
2023/03/08 01:56:50;;;;;;;0.10;0.10;;;2.50;99.90;;;;;;5027207;28;20048;-60
2023/03/08 01:59:19;;;;;;;0.10;0.10;;;2.30;99.90;;;;;;5027676;28;20041;-61
2023/03/08 02:01:45;;;;;;;0.10;0.10;;;2.40;99.90;;;;;;5026084;28;20053;-60
2023/03/08 02:04:11;;;;;;;0.10;0.10;;;2.30;99.90;;;;;;5027107;28;20049;-60
2023/03/08 02:06:36;;;;;;;0.10;0.10;;;2.30;99.90;;;;;;5024483;28;20045;-60
2023/03/08 02:09:03;;;;;;;0.10;0.10;;;2.30;99.90;;;;;;5029394;28;20111;-60
2023/03/08 02:11:30;;;;;;;0.10;0.10;;;2.20;99.90;;;;;;5031178;28;20727;-61
2023/03/08 02:13:56;;;;;;;0.10;0.10;;;2.10;99.90;;;;;;5029132;28;20045;-60
2023/03/08 02:16:22;;;;;;;0.10;0.10;;;2.10;99.90;;;;;;5029920;28;20667;-60
2023/03/08 02:18:58;;;;;;;0.10;0.10;;;2.20;99.90;;;;;;5029771;28;20041;-60
2023/03/08 02:21:26;;;;;;;0.10;0.10;;;2.20;99.90;;;;;;5030086;28;20119;-60
2023/03/08 02:23:52;;;;;;;0.20;0.20;;;2.00;99.90;;;;;;5029910;28;20374;-60
2023/03/08 02:26:18;;;;;;;0.00;0.00;;;1.90;99.90;;;;;;5029960;28;20115;-60
2023/03/08 02:28:44;;;;;;;0.10;0.10;;;1.90;99.90;;;;;;5027656;28;20045;-60
2023/03/08 02:31:10;;;;;;;0.10;0.10;;;1.90;99.90;;;;;;5030393;28;20060;-60
2023/03/08 02:33:36;;;;;;;0.10;0.10;;;1.90;99.90;;;;;;5012434;28;20053;-61
2023/03/08 02:36:03;;;;;;;0.10;0.10;;;1.90;99.90;;;;;;5027391;28;20037;-60
2023/03/08 02:38:29;;;;;;;0.10;0.10;;;1.90;99.90;;;;;;5027692;28;20061;-60
2023/03/08 02:40:55;;;;;;;0.13;0.13;;;1.80;99.90;;;;;;5012690;28;20049;-60
2023/03/08 02:43:21;;;;;;;0.10;0.10;;;1.80;99.90;;;;;;5028726;28;20068;-60
2023/03/08 02:45:47;;;;;;;0.10;0.10;;;1.80;99.90;;;;;;5029421;28;20096;-60
2023/03/08 02:48:13;;;;;;;0.10;0.10;;;1.70;99.90;;;;;;5020412;28;20072;-60
2023/03/08 02:50:38;;;;;;;0.10;0.10;;;1.70;99.90;;;;;;5029685;28;20079;-60
2023/03/08 02:53:04;;;;;;;0.10;0.10;;;1.60;99.90;;;;;;5028153;28;20052;-60
2023/03/08 02:55:30;;;;;;;0.10;0.10;;;1.70;99.90;;;;;;5012390;28;20578;-60
2023/03/08 02:57:56;;;;;;;0.10;0.10;;;1.70;99.90;;;;;;5029601;28;20449;-60
2023/03/08 03:00:21;;;;;;;0.10;0.10;;;1.70;99.90;;;;;;5028827;28;20458;-60
2023/03/08 03:02:47;;;;;;;0.10;0.10;;;1.70;99.90;;;;;;5012305;28;20508;-60
2023/03/08 03:05:13;;;;;;;0.10;0.10;;;1.80;99.90;;;;;;5028079;28;20132;-60
2023/03/08 03:07:41;;;;;;;0.10;0.10;;;1.80;99.90;;;;;;5029533;28;20477;-60
2023/03/08 03:10:11;;;;;;;0.10;0.10;;;1.80;99.90;;;;;;5012252;28;20051;-60
2023/03/08 03:12:36;;;;;;;0.10;0.10;;;1.70;99.90;;;;;;5029548;28;20037;-60
2023/03/08 03:15:04;;;;;;;0.10;0.10;;;1.70;99.90;;;;;;5029284;28;20067;-60
2023/03/08 03:17:30;;;;;;;0.10;0.10;;;1.70;99.90;;;;;;5028511;28;20497;-61
2023/03/08 03:19:56;;;;;;;0.17;0.17;;;1.70;99.90;;;;;;5029019;28;20128;-60
2023/03/08 03:22:22;;;;;;;0.10;0.10;;;1.60;99.90;;;;;;5029314;28;20140;-60
2023/03/08 03:24:49;;;;;;;0.10;0.10;;;1.50;99.90;;;;;;5028434;28;20038;-60
2023/03/08 03:27:15;;;;;;;0.10;0.10;;;1.50;99.90;;;;;;5029276;28;20064;-60
2023/03/08 03:29:41;;;;;;;0.63;0.63;;;1.60;99.90;;;;;;5029048;28;20037;-60
2023/03/08 03:32:07;;;;;;;0.10;0.10;;;1.50;99.90;;;;;;5029665;28;20473;-60
2023/03/08 03:34:32;;;;;;;0.20;0.20;;;1.50;99.90;;;;;;5026441;28;20099;-60
2023/03/08 03:36:58;;;;;;;0.10;0.10;;;1.50;99.90;;;;;;5029442;28;20041;-60
2023/03/08 03:39:24;;;;;;;0.10;0.10;;;1.50;99.90;;;;;;5028661;28;20366;-60
2023/03/08 03:41:49;;;;;;;0.10;0.10;;;1.40;99.90;;;;;;5027828;28;20132;-60
2023/03/08 03:44:15;;;;;;;0.10;0.10;;;1.40;99.90;;;;;;5028746;28;20045;-60
2023/03/08 03:46:41;;;;;;;0.20;0.20;;;1.40;99.90;;;;;;5011430;28;20073;-60
2023/03/08 03:49:06;;;;;;;0.10;0.10;;;1.50;99.90;;;;;;5028461;28;20467;-60
2023/03/08 03:51:32;;;;;;;0.10;0.10;;;1.50;99.90;;;;;;5028830;28;20041;-60
2023/03/08 03:53:58;;;;;;;0.10;0.10;;;1.60;99.90;;;;;;5027630;28;20099;-60
2023/03/08 03:56:25;;;;;;;0.13;0.13;;;1.60;99.90;;;;;;5028078;28;20081;-60
2023/03/08 03:58:51;;;;;;;0.10;0.10;;;1.40;99.90;;;;;;5028522;28;20044;-60
2023/03/08 04:01:30;;;;;;;0.10;0.10;;;1.30;99.90;;;;;;5028653;28;20096;-60
2023/03/08 04:03:56;;;;;;;0.10;0.10;;;1.30;99.90;;;;;;5028044;28;20076;-60
2023/03/08 04:06:24;;;;;;;0.10;0.10;;;1.40;99.90;;;;;;5027974;28;20037;-60
2023/03/08 04:08:55;;;;;;;0.10;0.10;;;1.30;99.90;;;;;;5018972;28;20046;-60
2023/03/08 04:11:23;;;;;;;0.10;0.10;;;1.30;99.90;;;;;;5028241;28;20088;-60
2023/03/08 04:13:49;;;;;;;0.10;0.10;;;1.20;99.90;;;;;;5027276;28;20042;-60
2023/03/08 04:16:20;;;;;;;0.10;0.10;;;1.30;99.90;;;;;;5028669;28;20059;-60
2023/03/08 04:18:46;;;;;;;0.10;0.10;;;1.30;99.90;;;;;;5026997;28;20045;-60
2023/03/08 04:21:13;;;;;;;0.20;0.20;;;1.20;99.90;;;;;;5008332;28;20111;-60
2023/03/08 04:23:39;;;;;;;0.10;0.10;;;1.20;99.90;;;;;;5000907;28;20085;-60
2023/03/08 04:26:05;;;;;;;0.10;0.10;;;1.20;99.90;;;;;;5022338;28;20037;-60
2023/03/08 04:28:32;;;;;;;0.10;0.10;;;1.20;99.90;;;;;;5028863;28;20033;-60
2023/03/08 04:30:58;;;;;;;0.10;0.10;;;1.20;99.90;;;;;;5027732;28;20060;-60
2023/03/08 04:33:24;;;;;;;0.10;0.10;;;1.20;99.90;;;;;;5026132;28;20073;-60
2023/03/08 04:35:50;;;;;;;0.10;0.10;;;1.10;99.90;;;;;;5009447;28;20480;-60
2023/03/08 04:38:16;;;;;;;0.10;0.10;;;1.20;99.90;;;;;;5025859;28;20099;-60
2023/03/08 04:41:00;;;;;;;0.10;0.10;;;1.10;99.90;;;;;;5027977;28;20057;-60
2023/03/08 04:43:27;;;;;;;0.10;0.10;;;1.20;99.90;;;;;;5027408;28;20048;-60
2023/03/08 04:45:52;;;;;;;3.10;2.83;;;1.10;99.90;;;;;;5027421;28;20128;-60
2023/03/08 04:48:18;;;;;;;0.13;0.13;;;1.20;99.90;;;;;;5028300;28;20137;-60
2023/03/08 04:50:43;;;;;;;0.10;0.10;;;1.30;99.90;;;;;;5026822;28;20049;-60
2023/03/08 04:53:09;;;;;;;0.20;0.20;;;1.30;99.90;;;;;;5026752;28;20401;-60
2023/03/08 04:55:38;;;;;;;0.10;0.10;;;1.40;99.90;;;;;;5028169;28;20100;-60
2023/03/08 04:58:03;;;;;;;0.57;0.57;;;1.40;99.90;;;;;;5027478;28;20068;-60
2023/03/08 05:00:29;;;;;;;0.10;0.10;;;1.30;99.90;;;;;;5026365;28;20084;-60
2023/03/08 05:02:55;;;;;;;0.20;0.20;;;1.30;99.90;;;;;;5027611;28;20045;-60
2023/03/08 05:05:20;;;;;;;0.20;0.20;;;1.10;99.90;;;;;;5026565;28;20050;-60
2023/03/08 05:07:46;;;;;;;0.10;0.10;;;1.10;99.90;;;;;;5026092;28;20046;-61
2023/03/08 05:10:11;;;;;;;0.15;0.15;;;1.00;99.90;;;;;;5025301;28;20056;-61
2023/03/08 05:12:37;;;;;;;0.10;0.10;;;1.00;99.90;;;;;;5026389;28;20038;-61
2023/03/08 05:15:03;;;;;;;0.10;0.10;;;1.00;99.90;;;;;;5009718;28;20382;-61
2023/03/08 05:17:28;;;;;;;0.15;0.15;;;1.00;99.90;;;;;;5027847;28;20034;-60
2023/03/08 05:19:54;;;;;;;0.10;0.10;;;1.00;99.90;;;;;;5024586;28;20033;-60
2023/03/08 05:22:19;;;;;;;0.10;0.10;;;1.00;99.90;;;;;;5026198;28;20508;-60
2023/03/08 05:24:47;;;;;;;0.10;0.10;;;1.10;99.90;;;;;;5027210;28;20037;-60
2023/03/08 05:27:12;;;;;;;0.10;0.10;;;1.10;99.90;;;;;;5026909;28;20060;-60
2023/03/08 05:29:38;;;;;;;0.10;0.10;;;1.10;99.90;;;;;;5027026;28;20033;-61
2023/03/08 05:32:04;;;;;;;0.20;0.20;;;1.10;99.90;;;;;;5026693;28;20453;-61
2023/03/08 05:34:29;;;;;;;0.10;0.10;;;1.10;99.90;;;;;;5025698;28;20076;-61
2023/03/08 05:36:55;;;;;;;0.10;0.10;;;1.00;99.90;;;;;;5027934;28;20335;-60
2023/03/08 05:39:21;;;;;;;0.10;0.10;;;1.00;99.90;;;;;;5009239;28;20049;-61
2023/03/08 05:41:47;;;;;;;0.10;0.10;;;1.10;99.90;;;;;;5008173;28;20103;-61
2023/03/08 05:44:13;;;;;;;0.10;0.10;;;1.10;99.90;;;;;;5022384;28;20037;-60
2023/03/08 05:46:38;;;;;;;0.20;0.20;;;1.10;99.90;;;;;;5029854;28;20047;-60
2023/03/08 05:49:05;;;;;;;0.10;0.10;;;1.10;99.90;;;;;;5031522;28;20033;-61
2023/03/08 05:51:31;;;;;;;0.13;0.13;;;1.10;99.90;;;;;;5030454;28;20053;-61
2023/03/08 05:53:56;;;;;;;0.10;0.10;;;1.20;99.90;;;;;;5031001;28;20064;-60
2023/03/08 05:56:23;;;;;;;0.10;0.10;;;1.20;99.90;;;;;;5029196;28;20060;-60
2023/03/08 05:58:50;;;;;;;0.20;0.20;;;1.10;99.90;;;;;;5031222;28;20054;-60
2023/03/08 06:01:18;;;;;;;6.03;2.47;;;1.10;99.90;;;;;;5027572;28;20041;-60
2023/03/08 06:03:45;;;;;;;0.10;0.10;;;1.00;99.90;;;;;;5031407;28;20056;-61
2023/03/08 06:06:11;;;;;;;0.10;0.10;;;1.00;99.90;;;;;;5027382;28;20049;-61
2023/03/08 06:08:37;;;;;;;0.20;0.20;;;1.00;99.90;;;;;;5030608;28;20094;-60
2023/03/08 06:11:02;;;;;;;0.10;0.10;;;1.00;99.90;;;;;;5011055;28;20499;-60
2023/03/08 06:13:28;;;;;;;0.10;0.10;;;0.90;99.90;;;;;;5031368;28;20082;-61
2023/03/08 06:15:55;;;;;;;0.10;0.10;;;1.00;99.90;;;;;;5029216;28;20397;-60
2023/03/08 06:18:21;;;;;;;0.10;0.10;;;1.00;99.90;;;;;;5030808;28;20120;-60
2023/03/08 06:21:14;;;;;;;0.25;0.25;;;1.00;99.90;;;;;;5019869;28;20552;-61
2023/03/08 06:23:40;;;;;;;0.10;0.10;;;1.00;99.90;;;;;;5028566;28;20049;-60
2023/03/08 06:26:07;;;;;;;0.10;0.10;;;1.00;99.90;;;;;;5030703;28;20045;-60
2023/03/08 06:28:34;;;;;;;0.30;0.30;;;1.00;99.90;;;;;;5030972;28;20041;-60
2023/03/08 06:31:00;;;;;;;0.35;0.35;;;1.00;99.90;;;;;;5029505;28;20042;-60
2023/03/08 06:33:28;;;;;;;0.10;0.10;;;1.10;99.90;;;;;;5030118;28;20122;-60
2023/03/08 06:36:10;;;;;;;0.20;0.20;;;1.20;99.90;;;;;;5029317;28;20091;-60
2023/03/08 06:38:37;;;;;;;0.10;0.10;;;1.10;99.90;;;;;;5028686;28;20049;-60
2023/03/08 06:41:03;;;;;;;0.10;0.10;;;1.20;99.90;;;;;;5029437;28;20052;-60
2023/03/08 06:43:29;;;;;;;0.30;0.30;;;1.20;99.90;;;;;;5011843;28;20103;-60
2023/03/08 06:45:55;;;;;;;0.10;0.10;;;1.30;99.90;;;;;;5030616;28;20049;-60
2023/03/08 06:48:21;;;;;;;0.10;0.10;;;1.30;99.90;;;;;;5030517;28;20091;-60
2023/03/08 06:50:47;;;;;;;0.10;0.10;;;1.40;99.90;;;;;;5029306;28;20428;-60
2023/03/08 06:53:13;;;;;;;0.40;0.40;;;1.40;99.90;;;;;;5022609;28;20056;-60
2023/03/08 06:55:39;;;;;;;0.10;0.10;;;1.50;99.90;;;;;;5028213;28;20038;-60
2023/03/08 06:58:05;;;;;;;0.10;0.10;;;1.50;99.90;;;;;;5026310;28;20041;-60
2023/03/08 07:00:31;;;;;;;0.10;0.10;;;1.50;99.90;;;;;;5027252;28;20044;-60
2023/03/08 07:02:57;;;;;;;0.10;0.10;;;1.60;99.90;;;;;;5028485;28;20524;-60
2023/03/08 07:05:22;;;;;;;0.10;0.10;;;1.70;99.90;;;;;;5011659;28;20049;-60
2023/03/08 07:07:48;;;;;;;0.10;0.10;;;1.70;99.90;;;;;;5029954;28;20477;-60
2023/03/08 07:10:16;;;;;;;0.10;0.10;;;1.70;99.90;;;;;;5009749;28;20171;-60
2023/03/08 07:12:47;;;;;;;0.10;0.10;;;1.60;99.90;;;;;;5028686;28;20128;-61
2023/03/08 07:15:14;;;;;;;0.10;0.10;;;1.60;99.90;;;;;;5029097;28;20060;-60
2023/03/08 07:17:43;;;;;;;0.40;0.40;;;1.60;99.90;;;;;;5029658;28;20038;-61
2023/03/08 07:20:10;;;;;;;0.10;0.10;;;1.60;99.90;;;;;;5017171;28;20847;-60
2023/03/08 07:22:36;;;;;;;0.15;0.15;;;1.60;99.90;;;;;;5027776;28;20531;-61
2023/03/08 07:25:02;;;;;;;0.30;0.30;;;1.60;99.90;;;;;;5027793;28;20033;-60
2023/03/08 07:27:27;;;;;;;0.13;0.13;;;1.70;99.90;;;;;;5027542;28;20034;-61
2023/03/08 07:29:53;;;;;;;0.50;0.50;;;1.70;99.90;;;;;;5029477;28;20504;-60
2023/03/08 07:32:18;;;;;;;0.90;0.85;;;1.80;99.90;;;;;;5026028;28;20072;-60
2023/03/08 07:34:44;;;;;;;2.95;2.67;;;1.80;99.90;;;;;;5029547;28;20075;-61
2023/03/08 07:37:14;;;;;;;0.10;0.10;;;1.80;99.90;;;;;;5028562;28;20761;-60
2023/03/08 07:39:41;;;;;;;0.82;0.82;;;1.80;99.90;;;;;;5028414;28;20866;-61
2023/03/08 07:42:09;;;;;;;0.70;0.70;;;1.90;99.90;;;;;;5011312;28;20057;-60
2023/03/08 07:44:36;;;;;;;0.30;0.30;;;1.90;99.90;;;;;;5029782;28;20038;-60
2023/03/08 07:47:02;;;;;;;0.20;0.20;;;2.10;99.90;;;;;;5027195;28;20049;-61
2023/03/08 07:49:27;;;;;;;0.15;0.15;;;2.20;99.90;;;;;;5029416;28;20046;-61
2023/03/08 07:51:53;;;;;;;0.10;0.10;;;2.20;99.90;;;;;;5011516;28;20397;-61
2023/03/08 07:54:19;;;;;;;0.10;0.10;;;2.20;99.90;;;;;;5028069;28;20053;-61
2023/03/08 07:56:44;;;;;;;0.13;0.13;;;2.20;99.90;;;;;;5029132;28;20069;-61
2023/03/08 07:59:10;;;;;;;0.10;0.10;;;2.10;99.90;;;;;;5022837;28;20053;-61
2023/03/08 08:01:35;;;;;;;0.20;0.20;;;2.20;99.90;;;;;;5009491;28;20041;-60
2023/03/08 08:04:01;;;;;;;0.10;0.10;;;2.30;99.90;;;;;;5025828;28;20038;-61
2023/03/08 08:06:27;;;;;;;0.10;0.10;;;2.30;99.90;;;;;;5009261;28;20096;-61
2023/03/08 08:08:54;;;;;;;0.10;0.10;;;2.40;99.90;;;;;;5028546;28;20060;-61
2023/03/08 08:11:20;;;;;;;0.10;0.10;;;2.40;99.90;;;;;;5029024;28;20041;-61
2023/03/08 08:13:46;;;;;;;0.10;0.10;;;2.50;99.90;;;;;;5029154;28;20377;-61
2023/03/08 08:16:16;;;;;;;0.13;0.13;;;2.40;99.90;;;;;;5027132;28;20033;-60
2023/03/08 08:18:41;;;;;;;0.20;0.20;;;2.50;99.90;;;;;;5026757;28;20454;-61
2023/03/08 08:21:09;;;;;;;0.10;0.10;;;2.60;99.90;;;;;;5015957;28;20061;-61
2023/03/08 08:23:36;;;;;;;0.10;0.10;;;2.50;99.90;;;;;;5011304;28;20467;-61
2023/03/08 08:26:10;;;;;;;0.10;0.10;;;2.50;99.90;;;;;;5025149;28;20047;-61
2023/03/08 08:28:37;;;;;;;0.10;0.10;;;2.50;99.90;;;;;;5022882;28;20052;-61
2023/03/08 08:31:05;;;;;;;0.10;0.10;;;2.60;99.90;;;;;;5025536;28;20049;-61
2023/03/08 08:33:31;;;;;;;0.10;0.10;;;2.70;99.90;;;;;;5027952;28;20053;-61
2023/03/08 08:35:58;;;;;;;0.10;0.10;;;2.70;99.90;;;;;;5026484;28;20044;-61
2023/03/08 08:38:24;;;;;;;0.10;0.10;;;2.70;99.90;;;;;;5028120;28;20056;-61
2023/03/08 08:40:50;;;;;;;0.38;0.38;;;2.70;99.90;;;;;;5010372;28;20057;-60
2023/03/08 08:43:16;;;;;;;1.55;1.38;;;2.80;99.90;;;;;;5027110;28;20061;-61
2023/03/08 08:45:46;;;;;;;0.15;0.15;;;2.90;99.90;;;;;;5027518;28;20098;-60
2023/03/08 08:48:12;;;;;;;0.10;0.10;;;2.90;99.90;;;;;;5027346;28;20060;-60
2023/03/08 08:50:39;;;;;;;4.07;0.90;;;2.80;99.90;;;;;;5027809;28;20386;-61
2023/03/08 08:53:05;;;;;;;0.10;0.10;;;2.90;99.90;;;;;;5026774;28;20056;-61
2023/03/08 08:55:31;;;;;;;0.10;0.10;;;3.00;99.90;;;;;;5028021;28;20405;-61
2023/03/08 08:57:56;;;;;;;0.17;0.17;;;3.00;99.90;;;;;;5026211;28;20053;-61
2023/03/08 09:00:22;;;;;;;0.10;0.10;;;3.10;99.90;;;;;;5027725;28;20048;-61
2023/03/08 09:02:48;;;;;;;0.10;0.10;;;3.10;99.90;;;;;;5027907;28;20107;-60
2023/03/08 09:05:14;;;;;;;0.10;0.10;;;3.10;99.90;;;;;;5027018;28;20046;-61
2023/03/08 09:07:39;;;;;;;1.30;1.30;;;3.20;99.90;;;;;;5027743;28;20056;-60
2023/03/08 09:10:06;;;;;;;0.10;0.10;;;3.30;99.90;;;;;;5027291;28;20095;-61
2023/03/08 09:12:31;;;;;;;0.10;0.10;;;3.40;99.90;;;;;;5024460;28;20495;-61
2023/03/08 09:14:57;;;;;;;0.20;0.20;;;3.30;99.90;;;;;;5009620;28;20128;-61
2023/03/08 09:17:23;;;;;;;0.10;0.10;;;3.40;99.90;;;;;;5027187;28;20056;-60
2023/03/08 09:19:48;;;;;;;0.10;0.10;;;3.40;99.90;;;;;;5005838;28;20053;-61
2023/03/08 09:22:14;;;;;;;0.10;0.10;;;3.50;99.90;;;;;;5025708;28;20034;-60
2023/03/08 09:24:40;;;;;;;0.10;0.10;;;3.50;99.90;;;;;;5025341;28;20116;-60
2023/03/08 09:27:06;;;;;;;0.10;0.10;;;3.60;99.90;;;;;;5027541;28;20250;-60
2023/03/08 09:29:32;;;;;;;0.10;0.10;;;3.70;99.90;;;;;;5027266;28;20073;-61
2023/03/08 09:31:58;;;;;;;0.10;0.10;;;3.70;99.90;;;;;;5025898;28;20053;-60
2023/03/08 09:34:24;;;;;;;0.10;0.10;;;3.80;99.90;;;;;;5025596;28;20049;-60
2023/03/08 09:36:50;;;;;;;0.10;0.10;;;3.70;99.90;;;;;;5027520;28;20048;-60
2023/03/08 09:39:15;;;;;;;0.10;0.10;;;3.70;99.90;;;;;;5027573;28;20045;-60
2023/03/08 09:41:51;;;;;;;0.10;0.10;;;3.80;99.90;;;;;;5008168;28;20139;-60
2023/03/08 09:44:48;;;;;;;0.10;0.10;;;3.80;99.90;;;;;;5010007;28;20049;-60
2023/03/08 09:47:38;;;;;;;0.65;0.65;;;4.00;99.90;;;;;;5015894;28;20099;-61
2023/03/08 09:50:28;;;;;;;0.17;0.17;;;4.10;99.90;;;;;;5026618;28;20605;-61
2023/03/08 09:53:01;;;;;;;0.10;0.10;;;4.20;99.90;;;;;;5027333;28;20037;-61
2023/03/08 09:55:31;;;;;;;0.10;0.10;;;4.50;99.90;;;;;;5027717;28;20554;-61
2023/03/08 09:58:20;;;;;;;0.10;0.10;;;4.90;99.90;;;;;;5025581;28;20049;-61
2023/03/08 10:00:46;;;;;;;0.10;0.10;;;5.20;99.90;;;;;;5020282;28;20049;-61
2023/03/08 10:03:33;;;;;;;0.10;0.10;;;5.10;99.90;;;;;;5027101;28;20053;-61
2023/03/08 10:06:35;;;;;;;0.25;0.25;;;5.10;99.90;;;;;;5027664;28;20046;-61
2023/03/08 10:09:20;;;;;;;0.10;0.10;;;5.00;99.90;;;;;;5026075;28;20397;-61
2023/03/08 10:12:01;;;;;;;1.27;1.17;;;5.10;99.90;;;;;;5023951;28;20481;-61
2023/03/08 10:14:35;;;;;;;0.10;0.10;;;5.10;99.90;;;;;;5021764;28;20046;-62
2023/03/08 10:17:12;;;;;;;0.10;0.10;;;5.10;99.90;;;;;;5024906;28;20156;-61
2023/03/08 10:19:45;;;;;;;0.10;0.10;;;5.00;99.90;;;;;;5015623;28;20041;-61
2023/03/08 10:22:33;;;;;;;0.65;0.65;;;5.10;99.90;;;;;;5026451;28;20049;-60
2023/03/08 10:25:22;;;;;;;0.10;0.10;;;5.10;99.90;;;;;;5026580;28;20076;-61
2023/03/08 10:27:50;;;;;;;0.20;0.20;;;5.10;99.90;;;;;;5027130;28;20124;-61
2023/03/08 10:30:18;;;;;;;0.10;0.10;;;5.10;99.90;;;;;;5031056;28;20045;-61
2023/03/08 10:32:47;;;;;;;1.58;1.48;;;5.20;99.90;;;;;;5028410;28;20041;-60
2023/03/08 10:35:13;;;;;;;0.20;0.20;;;5.20;99.90;;;;;;5029754;28;20037;-61
2023/03/08 10:37:39;;;;;;;0.10;0.10;;;5.20;99.90;;;;;;5029601;28;20041;-61
2023/03/08 10:40:17;;;;;;;0.13;0.13;;;5.30;99.90;;;;;;5012310;28;20068;-60
2023/03/08 10:42:52;;;;;;;0.10;0.10;;;5.30;99.90;;;;;;5023827;28;20037;-60
2023/03/08 10:45:24;;;;;;;0.10;0.10;;;5.20;99.90;;;;;;5028421;28;20053;-60
2023/03/08 10:48:18;;;;;;;0.10;0.10;;;5.20;99.90;;;;;;5028260;28;20045;-60
2023/03/08 10:50:44;;;;;;;;;;;5.20;99.90;;;;;;5029201;28;20410;-60
2023/03/08 10:53:18;;;;;;;0.10;0.10;;;5.20;99.90;;;;;;5029573;28;20036;-60
2023/03/08 10:55:49;;;;;;;0.10;0.10;;;5.20;99.90;;;;;;5025631;28;20045;-60
2023/03/08 10:58:29;;;;;;;0.10;0.10;;;5.20;99.90;;;;;;5029081;28;20100;-61
2023/03/08 11:00:58;;;;;;;0.10;0.10;;;5.30;99.90;;;;;;5029483;28;20112;-60
2023/03/08 11:03:25;;;;;;;0.10;0.10;;;5.30;99.90;;;;;;5027568;28;20041;-60
2023/03/08 11:06:13;;;;;;;0.13;0.13;;;5.40;99.90;;;;;;5030303;28;20041;-60
2023/03/08 11:08:50;;;;;;;0.15;0.15;;;5.60;99.90;;;;;;5029532;28;20041;-60
2023/03/08 11:11:16;;;;;;;0.10;0.10;;;5.70;99.90;;;;;;5029393;28;20512;-60
2023/03/08 11:13:45;;;;;;;0.20;0.20;;;5.80;99.90;;;;;;5027882;28;20046;-60
2023/03/08 11:16:40;;;;;;;0.10;0.10;;;5.80;99.90;;;;;;5016050;28;20038;-60
2023/03/08 11:19:28;;;;;;;0.10;0.10;;;5.90;99.90;;;;;;5005782;28;20049;-60
2023/03/08 11:22:24;;;;;;;0.10;0.10;;;6.00;99.90;;;;;;5029198;28;20054;-61
2023/03/08 11:25:04;;;;;;;0.10;0.10;;;6.10;99.90;;;;;;5028459;28;20041;-60
2023/03/08 11:27:46;;;;;;;0.10;0.10;;;6.10;99.90;;;;;;5029778;28;20052;-60
2023/03/08 11:30:50;;;;;;;0.10;0.10;;;6.20;99.90;;;;;;5029218;28;20056;-61
2023/03/08 11:33:19;;;;;;;;;;;6.30;99.90;;;;;;5029100;28;20136;-60
2023/03/08 11:35:57;;;;;;;0.10;0.10;;;6.40;99.90;;;;;;5027053;28;19925;-60
2023/03/08 11:38:28;;;;;;;0.10;0.10;;;6.30;99.90;;;;;;5028617;28;20132;-60
2023/03/08 11:41:15;;;;;;;0.30;0.30;;;6.30;99.90;;;;;;5028799;28;20076;-60
2023/03/08 11:43:49;;;;;;;0.10;0.10;;;6.40;99.90;;;;;;5029464;28;20051;-60
2023/03/08 11:46:22;;;;;;;0.10;0.10;;;6.40;99.90;;;;;;5026481;28;20045;-61
2023/03/08 11:49:05;;;;;;;0.10;0.10;;;6.50;99.90;;;;;;5027078;28;20492;-60
2023/03/08 11:51:47;;;;;;;0.10;0.10;;;6.50;99.90;;;;;;5028178;28;20041;-60
2023/03/08 11:54:29;;;;;;;0.13;0.13;;;6.60;99.90;;;;;;5011095;28;20155;-60
2023/03/08 11:57:01;;;;;;;0.05;0.05;;;6.70;99.90;;;;;;5011040;28;20099;-60
2023/03/08 11:59:45;;;;;;;0.10;0.10;;;6.60;99.90;;;;;;5025962;28;20068;-60
2023/03/08 12:02:23;;;;;;;0.10;0.10;;;6.70;99.90;;;;;;5028397;28;20080;-60
2023/03/08 12:05:06;;;;;;;0.10;0.10;;;6.80;99.90;;;;;;5027006;28;20487;-60
2023/03/08 12:07:54;;;;;;;2.17;1.10;;;6.80;99.90;;;;;;5027351;28;20049;-60
2023/03/08 12:10:53;;;;;;;0.10;0.10;;;6.80;99.90;;;;;;5029360;28;20049;-60
2023/03/08 12:13:37;;;;;;;0.10;0.10;;;6.80;99.90;;;;;;5022817;28;20041;-60
2023/03/08 12:16:23;;;;;;;0.10;0.10;;;6.70;99.90;;;;;;5024869;28;20044;-60
2023/03/08 12:19:00;;;;;;;0.10;0.10;;;6.80;99.90;;;;;;5019426;28;20124;-60
2023/03/08 12:21:49;;;;;;;0.10;0.10;;;6.90;99.90;;;;;;5021307;28;20104;-60
2023/03/08 12:24:26;;;;;;;0.10;0.10;;;6.80;99.90;;;;;;5027800;28;20690;-60
2023/03/08 12:26:58;;;;;;;0.10;0.10;;;6.80;99.90;;;;;;5027022;28;20100;-61
2023/03/08 12:29:51;;;;;;;0.10;0.10;;;6.80;99.90;;;;;;5027983;28;20152;-60
2023/03/08 12:32:18;;;;;;;3.53;1.98;;;6.80;99.90;;;;;;5021369;28;20131;-60
2023/03/08 12:34:45;;;;;;;0.10;0.10;;;7.00;99.90;;;;;;5027226;28;20132;-60
2023/03/08 12:37:38;;;;;;;0.95;0.90;;;7.10;99.90;;;;;;5026704;28;20571;-60
2023/03/08 12:40:27;;;;;;;0.10;0.10;;;7.10;99.90;;;;;;5020083;28;20754;-60
2023/03/08 12:43:26;;;;;;;0.10;0.10;;;7.70;99.90;;;;;;5026474;28;20041;-61
2023/03/08 12:46:10;;;;;;;0.10;0.10;;;7.90;99.90;;;;;;5020056;28;20038;-60
2023/03/08 12:48:46;;;;;;;0.10;0.10;;;7.90;99.90;;;;;;5026431;28;20041;-60
2023/03/08 12:51:11;;;;;;;0.10;0.10;;;7.80;99.90;;;;;;5010310;28;20098;-60
2023/03/08 12:53:49;;;;;;;0.00;0.00;;;7.90;99.90;;;;;;5027005;28;20485;-60
2023/03/08 12:56:22;;;;;;;0.10;0.10;;;8.00;99.90;;;;;;5026540;28;20504;-60
2023/03/08 12:58:55;;;;;;;0.10;0.10;;;7.90;99.90;;;;;;5023769;28;20041;-60
2023/03/08 13:01:29;;;;;;;0.17;0.17;;;7.80;99.90;;;;;;5028173;28;20045;-61
2023/03/08 13:03:54;;;;;;;0.55;0.55;;;7.80;99.90;;;;;;5026380;28;20354;-60
2023/03/08 13:06:24;;;;;;;0.10;0.10;;;7.80;99.90;;;;;;5027825;28;20444;-60
2023/03/08 13:09:02;;;;;;;0.00;0.00;;;8.00;99.90;;;;;;5026942;28;20050;-60
2023/03/08 13:11:39;;;;;;;0.10;0.10;;;8.10;99.90;;;;;;5023235;28;20112;-60